Altonah, Utah
Current Conditions -  °F | °C
As of 2:27 PM on Monday 22 Dec 2014 (Local Time) from KVEL Reporting Station
Overcast Overcast  
Wind Chill:   Ceiling: 10000
Heat Index:   Visibility: 10mi
Dew Point: -4°   Wind: 22mph
Humidity: 51%   Direction: 300°WNW
Pressure: 29.83"   Gusts: 29mph
Location:  40.4°N, 110.29°W
Report Text: KVEL 222127Z AUTO 30019G25KT 10SM FEW075 OVC100 05/M04 A2983 RMK AO2 PK WND 30027/2117 WSHFT 2107 T00501044
Loading
Personal Weather Stations






























Interactive Weather Map New forecast layout! Learn more

10-Day Weather Forecast

Advertisements
Track Severe Weather on mobile